createdAt,value
2023-03-18T00:04:27.882Z,11.82
2023-03-18T00:09:36.548Z,11.76
2023-03-18T00:14:41.191Z,11.76
2023-03-18T00:19:50.433Z,11.75
2023-03-18T00:24:54.187Z,11.71
2023-03-18T00:29:59.181Z,11.68
2023-03-18T00:35:24.043Z,11.68
2023-03-18T00:40:43.443Z,11.63
2023-03-18T00:45:48.941Z,11.62
2023-03-18T00:50:55.587Z,11.59
2023-03-18T00:55:59.883Z,11.57
2023-03-18T01:01:03.910Z,11.52
2023-03-18T01:06:11.870Z,11.50
2023-03-18T01:11:16.049Z,11.44
2023-03-18T01:16:21.687Z,11.44
2023-03-18T01:21:29.888Z,11.47
2023-03-18T01:26:37.237Z,11.48
2023-03-18T01:31:41.551Z,11.48
2023-03-18T01:36:50.729Z,11.43
2023-03-18T01:41:55.799Z,11.41
2023-03-18T01:47:00.686Z,11.39
2023-03-18T01:52:13.406Z,11.39
2023-03-18T01:57:19.836Z,11.36
2023-03-18T02:02:23.748Z,11.37
2023-03-18T02:07:35.604Z,11.37
2023-03-18T02:12:45.253Z,11.36
2023-03-18T02:17:57.609Z,11.36
2023-03-18T02:23:09.326Z,11.34
2023-03-18T02:28:24.189Z,11.30
2023-03-18T02:33:33.759Z,11.27
2023-03-18T02:38:37.483Z,11.24
2023-03-18T02:43:43.578Z,11.22
2023-03-18T02:48:50.048Z,11.20
2023-03-18T02:53:56.575Z,11.14
2023-03-18T02:59:01.834Z,11.10
2023-03-18T03:04:09.576Z,11.03
2023-03-18T03:09:16.626Z,10.98
2023-03-18T03:14:24.545Z,10.94
2023-03-18T03:19:30.523Z,10.90
2023-03-18T03:24:37.314Z,10.88
2023-03-18T03:29:44.316Z,10.89
2023-03-18T03:34:50.503Z,10.87
2023-03-18T03:39:54.645Z,10.86
2023-03-18T03:45:03.581Z,10.86
2023-03-18T03:50:08.756Z,10.85
2023-03-18T03:55:22.158Z,10.84
2023-03-18T04:00:30.519Z,10.84
2023-03-18T04:05:36.454Z,10.81
2023-03-18T04:10:41.938Z,10.79
2023-03-18T04:15:49.272Z,10.76
2023-03-18T04:20:54.628Z,10.73
2023-03-18T04:26:00.909Z,10.72
2023-03-18T04:31:08.224Z,10.72
2023-03-18T04:36:16.238Z,10.72
2023-03-18T04:41:20.626Z,10.72
2023-03-18T04:46:30.214Z,10.75
2023-03-18T04:51:34.169Z,10.76
2023-03-18T04:56:39.248Z,10.75
2023-03-18T05:01:44.698Z,10.77
2023-03-18T05:06:49.202Z,10.81
2023-03-18T05:11:54.494Z,10.82
2023-03-18T05:17:02.160Z,10.87
2023-03-18T05:22:06.046Z,10.85
2023-03-18T05:27:14.447Z,10.86
2023-03-18T05:32:21.285Z,10.85
2023-03-18T05:37:30.493Z,10.85
2023-03-18T05:42:38.641Z,10.86
2023-03-18T05:47:53.892Z,10.88
2023-03-18T05:52:59.555Z,10.92
2023-03-18T05:58:05.009Z,10.94
2023-03-18T06:03:10.567Z,11.00
2023-03-18T06:08:15.709Z,11.08
2023-03-18T06:13:19.461Z,11.19
2023-03-18T06:18:25.847Z,11.27
2023-03-18T06:23:30.039Z,11.37
2023-03-18T06:28:33.898Z,11.46
2023-03-18T06:33:40.217Z,11.59
2023-03-18T06:38:46.107Z,11.64
2023-03-18T06:43:52.107Z,11.71
2023-03-18T06:49:01.923Z,11.70
2023-03-18T06:54:06.011Z,11.80
2023-03-18T06:59:13.380Z,12.28
2023-03-18T07:04:27.146Z,12.39
2023-03-18T07:09:33.726Z,12.37
2023-03-18T07:14:37.570Z,12.41
2023-03-18T07:19:43.289Z,12.42
2023-03-18T07:24:49.385Z,12.43
2023-03-18T07:29:54.755Z,12.48
2023-03-18T07:35:03.703Z,12.62
2023-03-18T07:40:10.121Z,12.83
2023-03-18T07:45:14.458Z,13.36
2023-03-18T07:50:29.679Z,13.56
2023-03-18T07:55:35.081Z,13.79
2023-03-18T08:00:40.793Z,13.94
2023-03-18T08:05:48.111Z,13.92
2023-03-18T08:10:53.164Z,13.87
2023-03-18T08:15:57.959Z,13.85
2023-03-18T08:21:03.886Z,13.82
2023-03-18T08:26:08.515Z,13.76
2023-03-18T08:31:20.713Z,13.79
2023-03-18T08:36:29.183Z,13.79
2023-03-18T08:41:33.812Z,13.80
2023-03-18T08:46:37.883Z,13.79
2023-03-18T08:51:44.973Z,13.73
2023-03-18T08:56:49.893Z,13.73
2023-03-18T09:01:54.796Z,13.87
2023-03-18T09:07:03.773Z,13.95
2023-03-18T09:12:12.839Z,14.20
2023-03-18T09:17:23.562Z,14.48
2023-03-18T09:22:34.565Z,14.68
2023-03-18T09:27:42.486Z,14.77
2023-03-18T09:32:49.340Z,14.97
2023-03-18T09:37:57.940Z,15.25
2023-03-18T09:43:17.127Z,15.49
2023-03-18T09:48:46.162Z,15.87
2023-03-18T09:53:57.840Z,16.34
2023-03-18T09:59:05.216Z,17.03
2023-03-18T10:04:16.433Z,17.38
2023-03-18T10:09:30.716Z,17.62
2023-03-18T10:14:45.986Z,17.82
2023-03-18T10:19:57.070Z,18.09
2023-03-18T10:25:10.491Z,18.44
2023-03-18T10:30:31.625Z,18.84
2023-03-18T10:35:41.577Z,18.95
2023-03-18T10:40:51.089Z,19.22
2023-03-18T10:46:09.040Z,19.07
2023-03-18T10:51:26.414Z,19.38
2023-03-18T10:56:34.068Z,19.53
2023-03-18T11:01:44.079Z,19.25
2023-03-18T11:06:53.599Z,19.36
2023-03-18T11:12:05.646Z,19.44
2023-03-18T11:17:22.809Z,19.24
2023-03-18T11:22:27.914Z,19.31
2023-03-18T11:27:55.396Z,19.41
2023-03-18T11:33:01.311Z,19.59
2023-03-18T11:38:16.115Z,19.66
2023-03-18T11:43:26.855Z,19.84
2023-03-18T11:48:34.246Z,19.80
2023-03-18T11:53:53.419Z,19.97
2023-03-18T11:59:40.252Z,20.14
2023-03-18T12:05:24.666Z,20.20
2023-03-18T12:10:36.232Z,20.02
2023-03-18T12:15:55.642Z,19.80
2023-03-18T12:21:07.015Z,19.75
2023-03-18T12:26:17.455Z,19.81
2023-03-18T12:31:54.511Z,20.04
2023-03-18T12:37:14.347Z,20.24
2023-03-18T12:42:27.554Z,20.23
2023-03-18T12:47:42.048Z,20.27
2023-03-18T12:53:08.741Z,20.22
2023-03-18T12:58:22.273Z,20.15
2023-03-18T13:03:37.330Z,20.15
2023-03-18T13:09:08.450Z,20.11
2023-03-18T13:14:21.997Z,20.17
2023-03-18T13:19:31.823Z,20.17
2023-03-18T13:24:54.423Z,20.18
2023-03-18T13:30:10.835Z,20.19
2023-03-18T13:35:56.564Z,20.13
2023-03-18T13:41:35.727Z,20.12
2023-03-18T13:46:42.681Z,20.09
2023-03-18T13:52:02.362Z,20.06
2023-03-18T13:57:38.327Z,19.99
2023-03-18T14:03:07.391Z,19.95
2023-03-18T14:08:47.294Z,20.00
2023-03-18T14:13:53.663Z,20.04
2023-03-18T14:19:04.988Z,20.00
2023-03-18T14:24:28.314Z,19.91
2023-03-18T14:29:54.842Z,19.87
2023-03-18T14:35:28.325Z,19.87
2023-03-18T14:40:40.984Z,19.84
2023-03-18T14:45:49.904Z,19.80
2023-03-18T14:50:57.858Z,19.74
2023-03-18T14:56:11.256Z,19.71
2023-03-18T15:01:18.103Z,19.62
2023-03-18T15:06:27.380Z,19.56
2023-03-18T15:11:39.954Z,19.53
2023-03-18T15:16:54.858Z,19.45
2023-03-18T15:22:04.904Z,19.37
2023-03-18T15:27:23.205Z,19.38
2023-03-18T15:32:33.723Z,19.38
2023-03-18T15:37:44.861Z,19.37
2023-03-18T15:43:00.066Z,19.41
2023-03-18T15:48:19.034Z,19.40
2023-03-18T15:53:26.667Z,19.36
2023-03-18T15:58:48.895Z,19.26
2023-03-18T16:03:56.444Z,19.16
2023-03-18T16:09:04.425Z,19.08
2023-03-18T16:14:41.551Z,19.01
2023-03-18T16:19:58.863Z,18.92
2023-03-18T16:25:05.342Z,18.79
2023-03-18T16:30:30.109Z,18.73
2023-03-18T16:35:38.594Z,18.61
2023-03-18T16:40:44.852Z,18.53
2023-03-18T16:46:11.218Z,18.44
2023-03-18T16:51:18.027Z,18.33
2023-03-18T16:56:24.626Z,18.24
2023-03-18T17:01:29.642Z,18.13
2023-03-18T17:06:42.684Z,18.03
2023-03-18T17:11:51.932Z,17.90
2023-03-18T17:17:00.327Z,17.76
2023-03-18T17:22:21.219Z,17.68
2023-03-18T17:27:27.183Z,17.57
2023-03-18T17:32:32.628Z,17.46
2023-03-18T17:37:36.322Z,17.35
2023-03-18T17:42:46.787Z,17.27
2023-03-18T17:48:01.591Z,17.17
2023-03-18T17:53:06.655Z,17.06
2023-03-18T17:58:18.174Z,16.99
2023-03-18T18:03:27.947Z,16.90
2023-03-18T18:08:33.306Z,16.80
2023-03-18T18:13:40.167Z,16.74
2023-03-18T18:18:57.741Z,16.66
2023-03-18T18:24:01.578Z,16.58
2023-03-18T18:29:12.875Z,16.49
2023-03-18T18:34:22.047Z,16.41
2023-03-18T18:39:27.551Z,16.32
2023-03-18T18:44:36.041Z,16.26
2023-03-18T18:49:44.347Z,16.21
2023-03-18T18:54:48.277Z,16.17
2023-03-18T18:59:51.843Z,16.11
2023-03-18T19:04:57.101Z,16.06
2023-03-18T19:10:00.935Z,15.99
2023-03-18T19:15:04.599Z,15.93
2023-03-18T19:20:27.445Z,15.89
2023-03-18T19:25:31.354Z,15.84
2023-03-18T19:30:35.244Z,15.82
2023-03-18T19:35:42.439Z,15.77
2023-03-18T19:40:51.804Z,15.76
2023-03-18T19:46:21.033Z,15.74
2023-03-18T19:51:28.126Z,15.67
2023-03-18T19:56:50.206Z,15.61
2023-03-18T20:01:54.072Z,15.54
2023-03-18T20:07:01.665Z,15.42
2023-03-18T20:12:07.268Z,15.24
2023-03-18T20:17:29.673Z,15.13
2023-03-18T20:22:37.654Z,15.04
2023-03-18T20:27:41.203Z,14.96
2023-03-18T20:32:44.933Z,14.92
2023-03-18T20:37:50.161Z,14.83
2023-03-18T20:42:54.494Z,14.72
2023-03-18T20:48:00.171Z,14.62
2023-03-18T20:53:08.797Z,14.54
2023-03-18T20:58:19.812Z,14.45
2023-03-18T21:03:27.206Z,14.37
2023-03-18T21:08:37.561Z,14.27
2023-03-18T21:13:46.045Z,14.19
2023-03-18T21:18:50.598Z,14.10
2023-03-18T21:23:56.367Z,14.00
2023-03-18T21:29:01.537Z,13.96
2023-03-18T21:34:05.965Z,13.89
2023-03-18T21:39:11.933Z,13.83
2023-03-18T21:44:16.331Z,13.77
2023-03-18T21:49:22.929Z,13.68
2023-03-18T21:54:35.519Z,13.65
2023-03-18T21:59:38.789Z,13.57
2023-03-18T22:04:43.351Z,13.52
2023-03-18T22:09:51.961Z,13.49
2023-03-18T22:15:00.245Z,13.43
2023-03-18T22:20:06.498Z,13.36
2023-03-18T22:25:26.497Z,13.30
2023-03-18T22:30:34.308Z,13.28
2023-03-18T22:35:38.950Z,13.28
2023-03-18T22:40:49.827Z,13.24
2023-03-18T22:45:57.510Z,13.20
2023-03-18T22:51:02.372Z,13.14
2023-03-18T22:56:13.630Z,13.14
2023-03-18T23:01:20.898Z,13.09
2023-03-18T23:06:27.359Z,13.04
2023-03-18T23:11:32.816Z,13.01
2023-03-18T23:16:37.601Z,12.98
2023-03-18T23:21:53.342Z,12.96
2023-03-18T23:27:02.062Z,12.96
2023-03-18T23:32:09.516Z,12.91
2023-03-18T23:37:14.469Z,12.87
2023-03-18T23:42:21.897Z,12.84
2023-03-18T23:47:25.776Z,12.80
2023-03-18T23:52:30.890Z,12.76
2023-03-18T23:57:36.720Z,12.75
